Hovedside
METAR-TAF:

METAR-TAF

Lufthavner :

Damaskus, Syria

breddegrad: 33-25N, lengdegrad: 036-31E, høyde over havet: 608 m

Gjeldene værobservasjon

Denne rapporten ble laget for 1 time og 4 minutter siden, klokken 12:00 UTC
Vind 12 kt fra Sørøst
Temperatur 37°C
Luftfuktighet 17%
Trykk 1007 hPa
Sikt 10 km eller mer
ingen skyer under 1500 m og ingen bygeskyer

METAR: OSDI 151200Z 14012KT CAVOK 37/08 Q1007

Tid: 16:04 (13:04 UTC)

Varsel

Denne rapporten ble laget for 2 timer og 4 minutter siden, klokken 11:00 UTC
Varsel gyldig fra 15. klokken 12 UTC til 16. klokken 18 UTC
Vind 15 kt fra Vest-sørvest med vindkast opp mot 25 kt
Sikt 10 km eller mer
Få skyer i en høyde av 3000 ft
Midlertidig
fra 15. klokken 18 UTC til 16. klokken 12 UTC
Vind 10 kt fra Sørvest
Sikt 10 km eller mer
ingen skyer under 1500 m og ingen bygeskyer

TAF: OSDI 151100Z 1512/1618 24015G25KT 9999 FEW030 TEMPO 1518/1612 22010KT CAVOK

Værobservasjoner og værvarsel for over 4000 flyplasser (METAR- og TAF-rapporter).

Tilgjengelige stasjoner er representert av de røde og gule prikkene på kartet.

Hold musepekeren over prikken for å se navnet på stasjonen.

Klikk så for å se værobservasjoner og -varsler.

For å forandre kartet kan du klikke på den grønne knappen med svart kryss for å zoome inn, på den grønne knappen med strek for å zoome ut, eller på de grønne pilene for å se tilstøtende kart.


METAR-TAF: